Time;durP1;ratioP1;P1;durP2;ratioP2;P2;SDS_P1;SDS_P2;PMS_P1;PMS_P2;Temp;Humidity;BMP_temperature;BMP_pressure;BME280_temperature;BME280_humidity;BME280_pressure;Samples;Min_cycle;Max_cycle;Signal;HPM_P1;HPM_P2
2021/12/14 00:01:41;;;;;;;18.47;9.90;;;7.60;99.90;7.50;101663.00;;;;4984687;27;94170;-69
2021/12/14 00:04:19;;;;;;;15.03;8.90;;;7.60;99.90;7.50;101658.00;;;;4993207;27;93486;-69
2021/12/14 00:06:48;;;;;;;18.27;9.27;;;7.60;99.90;7.50;101663.00;;;;4996221;27;92976;-69
2021/12/14 00:09:24;;;;;;;16.80;10.07;;;7.60;99.90;7.50;101658.00;;;;5011371;27;92816;-69
2021/12/14 00:12:33;;;;;;;23.53;10.97;;;7.60;99.90;7.50;101654.00;;;;5010336;27;93895;-70
2021/12/14 00:15:04;;;;;;;19.43;10.53;;;7.60;99.90;7.50;101649.00;;;;5012021;27;92839;-69
2021/12/14 00:17:37;;;;;;;14.93;9.57;;;7.60;99.90;7.50;101655.00;;;;5014869;27;92319;-69
2021/12/14 00:20:28;;;;;;;17.63;9.57;;;7.70;99.90;7.50;101659.00;;;;5011658;27;93623;-68
2021/12/14 00:25:47;;;;;;;17.27;9.03;;;7.60;99.90;7.50;101659.00;;;;5010546;27;93722;-68
2021/12/14 00:28:34;;;;;;;17.67;9.70;;;7.70;99.90;7.50;101652.00;;;;4993887;27;92922;-68
2021/12/14 00:31:06;;;;;;;17.10;9.70;;;7.60;99.90;7.50;101647.00;;;;4992790;27;93145;-68
2021/12/14 00:33:34;;;;;;;14.73;8.50;;;7.50;99.90;7.50;101651.00;;;;5011118;27;93442;-69
2021/12/14 00:36:07;;;;;;;14.10;9.20;;;7.60;99.90;7.40;101646.00;;;;5012908;27;92798;-68
2021/12/14 00:38:35;;;;;;;17.47;8.60;;;7.60;99.90;7.40;101645.00;;;;4995691;27;93003;-69
2021/12/14 00:41:24;;;;;;;16.23;8.80;;;7.60;99.90;7.40;101655.00;;;;5012261;27;93219;-68
2021/12/14 00:43:50;;;;;;;17.77;10.10;;;7.60;99.90;7.50;101650.00;;;;4992658;27;92899;-68
2021/12/14 00:46:17;;;;;;;14.90;8.63;;;7.60;99.90;7.50;101648.00;;;;5008314;27;93017;-68
2021/12/14 00:48:44;;;;;;;19.67;9.40;;;7.60;99.90;7.50;101649.00;;;;5012976;27;93170;-68
2021/12/14 00:51:11;;;;;;;16.90;9.77;;;7.60;99.90;7.50;101654.00;;;;5029040;27;106090;-68
2021/12/14 00:53:39;;;;;;;16.50;9.23;;;7.50;99.90;7.50;101652.00;;;;5010598;27;94620;-68
2021/12/14 00:56:08;;;;;;;15.10;8.93;;;7.60;99.90;7.50;101652.00;;;;5011512;27;92831;-68
2021/12/14 00:58:35;;;;;;;14.53;9.23;;;7.60;99.90;7.40;101658.00;;;;4992837;27;92808;-68
2021/12/14 01:01:08;;;;;;;15.67;9.00;;;7.60;99.90;7.40;101659.00;;;;5011251;27;94057;-67
2021/12/14 01:03:37;;;;;;;14.30;10.10;;;7.50;99.90;7.40;101660.00;;;;5003815;27;92858;-67
2021/12/14 01:06:07;;;;;;;14.40;9.30;;;7.60;99.90;7.40;101668.00;;;;5015919;27;92935;-68
2021/12/14 01:08:37;;;;;;;17.13;8.80;;;7.60;99.90;7.40;101662.00;;;;5016147;27;92066;-68
2021/12/14 01:11:22;;;;;;;12.07;7.47;;;7.60;99.90;7.40;101656.00;;;;5011491;27;93823;-68
2021/12/14 01:14:06;;;;;;;13.00;8.97;;;7.60;99.90;7.40;101656.00;;;;5010908;27;92987;-67
2021/12/14 01:16:54;;;;;;;12.67;8.03;;;7.60;99.90;7.40;101658.00;;;;4992771;27;94253;-68
2021/12/14 01:19:29;;;;;;;14.60;8.63;;;7.60;99.90;7.40;101656.00;;;;5011855;27;92693;-68
2021/12/14 01:22:45;;;;;;;13.10;8.17;;;7.50;99.90;7.40;101662.00;;;;4992425;27;92914;-68
2021/12/14 01:25:35;;;;;;;16.53;9.57;;;7.70;99.90;7.40;101660.00;;;;5017272;27;93118;-68
2021/12/14 01:28:07;;;;;;;12.00;8.30;;;7.50;99.90;7.40;101664.00;;;;4992495;27;92917;-68
2021/12/14 01:30:41;;;;;;;15.00;8.53;;;7.50;99.90;7.40;101660.00;;;;5018424;27;93142;-68
2021/12/14 01:33:12;;;;;;;13.83;8.20;;;7.50;99.90;7.40;101669.00;;;;5010559;27;93054;-68
2021/12/14 01:35:43;;;;;;;10.37;7.77;;;7.50;99.90;7.40;101665.00;;;;5011179;27;93962;-68
2021/12/14 01:40:59;;;;;;;12.97;8.27;;;7.50;99.90;7.40;101668.00;;;;5008168;27;92981;-68
2021/12/14 01:43:52;;;;;;;11.73;8.10;;;7.50;99.90;7.30;101655.00;;;;4990594;27;110872;-68
2021/12/14 01:46:47;;;;;;;10.37;7.70;;;7.50;99.90;7.30;101666.00;;;;4992353;27;94058;-67
2021/12/14 01:49:17;;;;;;;12.00;7.47;;;7.50;99.90;7.40;101665.00;;;;5010160;27;92873;-67
2021/12/14 01:51:46;;;;;;;15.70;8.67;;;7.50;99.90;7.40;101665.00;;;;5012034;27;95833;-67
2021/12/14 01:54:17;;;;;;;16.03;8.43;;;7.50;99.90;7.40;101664.00;;;;5012979;27;96445;-67
2021/12/14 01:56:44;;;;;;;14.37;8.07;;;7.40;99.90;7.30;101655.00;;;;5013568;27;113856;-67
2021/12/14 01:59:28;;;;;;;13.10;8.30;;;7.50;99.90;7.30;101646.00;;;;5009982;27;95861;-68
2021/12/14 02:02:07;;;;;;;14.03;7.87;;;7.50;99.90;7.40;101654.00;;;;5004141;27;91986;-67
2021/12/14 02:04:33;;;;;;;13.23;7.87;;;7.50;99.90;7.40;101657.00;;;;5010018;27;93991;-67
2021/12/14 02:07:04;;;;;;;14.80;7.53;;;7.50;99.90;7.40;101652.00;;;;5017306;27;93679;-68
2021/12/14 02:09:33;;;;;;;12.60;6.93;;;7.50;99.90;7.40;101647.00;;;;4996916;27;93966;-67
2021/12/14 02:12:08;;;;;;;10.43;7.37;;;7.50;99.90;7.40;101650.00;;;;5011701;27;92942;-67
2021/12/14 02:14:34;;;;;;;16.13;8.23;;;7.50;99.90;7.40;101653.00;;;;5012617;27;107003;-67
2021/12/14 02:17:03;;;;;;;14.27;8.30;;;7.50;99.90;7.40;101652.00;;;;5009799;27;121963;-67
2021/12/14 02:19:31;;;;;;;11.87;7.23;;;7.50;99.90;7.30;101654.00;;;;5009871;27;97474;-67
2021/12/14 02:21:58;;;;;;;10.93;7.10;;;7.50;99.90;7.30;101653.00;;;;5009844;27;92772;-68
2021/12/14 02:24:28;;;;;;;12.93;7.40;;;7.50;99.90;7.30;101655.00;;;;4989838;27;95168;-67
2021/12/14 02:26:55;;;;;;;11.43;6.70;;;7.40;99.90;7.30;101643.00;;;;5014290;27;93067;-67
2021/12/14 02:29:31;;;;;;;9.23;7.13;;;7.50;99.90;7.30;101642.00;;;;5009137;27;93409;-67
2021/12/14 02:32:13;;;;;;;12.70;7.17;;;7.50;99.90;7.30;101639.00;;;;5012938;27;93037;-67
2021/12/14 02:34:55;;;;;;;11.73;7.97;;;7.50;99.90;7.30;101635.00;;;;5015040;27;93815;-67
2021/12/14 02:37:41;;;;;;;12.13;7.33;;;7.50;99.90;7.30;101630.00;;;;5009444;27;111351;-67
2021/12/14 02:40:20;;;;;;;11.03;6.73;;;7.50;99.90;7.30;101636.00;;;;5016725;27;92777;-68
2021/12/14 02:42:50;;;;;;;14.83;8.20;;;7.50;99.90;7.30;101626.00;;;;5028541;27;93011;-68
2021/12/14 02:45:23;;;;;;;11.97;7.63;;;7.40;99.90;7.30;101621.00;;;;5018219;27;94100;-68
2021/12/14 02:47:49;;;;;;;13.17;7.47;;;7.40;99.90;7.30;101618.00;;;;5017540;27;106154;-68
2021/12/14 02:50:15;;;;;;;10.47;6.07;;;7.50;99.90;7.30;101623.00;;;;5021112;27;93114;-68
2021/12/14 02:52:41;;;;;;;10.73;7.40;;;7.50;99.90;7.30;101615.00;;;;4998870;27;108959;-68
2021/12/14 02:55:10;;;;;;;10.07;6.70;;;7.40;99.90;7.30;101625.00;;;;5015639;27;93323;-68
2021/12/14 02:57:41;;;;;;;10.43;7.03;;;7.40;99.90;7.30;101635.00;;;;5016143;27;93040;-68
2021/12/14 03:00:26;;;;;;;10.20;7.43;;;7.40;99.90;7.30;101623.00;;;;5016084;27;98649;-67
2021/12/14 03:02:53;;;;;;;15.13;7.37;;;7.40;99.90;7.30;101623.00;;;;4995686;27;92865;-67
2021/12/14 03:05:25;;;;;;;10.40;6.83;;;7.40;99.90;7.30;101628.00;;;;5016970;27;108624;-67
2021/12/14 03:07:59;;;;;;;9.80;6.70;;;7.40;99.90;7.30;101624.00;;;;5025711;27;94053;-67
2021/12/14 03:12:58;;;;;;;9.63;6.30;;;7.40;99.90;7.20;101632.00;;;;4985943;27;92947;-67
2021/12/14 03:15:34;;;;;;;13.40;6.83;;;7.40;99.90;7.20;101618.00;;;;4995887;27;93352;-67
2021/12/14 03:18:07;;;;;;;10.50;7.00;;;7.40;99.90;7.20;101633.00;;;;5010051;27;92986;-67
2021/12/14 03:20:40;;;;;;;10.57;6.07;;;7.30;99.90;7.20;101627.00;;;;5000991;27;92677;-67
2021/12/14 03:23:26;;;;;;;11.13;5.97;;;7.30;99.90;7.20;101630.00;;;;4996109;27;92776;-67
2021/12/14 03:25:55;;;;;;;12.97;7.33;;;7.30;99.90;7.20;101619.00;;;;4995504;27;94651;-67
2021/12/14 03:28:25;;;;;;;12.03;6.90;;;7.40;99.90;7.10;101614.00;;;;5005890;27;94619;-67
2021/12/14 03:31:26;;;;;;;11.63;6.63;;;7.30;99.90;7.10;101608.00;;;;5008520;27;93181;-67
2021/12/14 03:34:00;;;;;;;10.00;5.63;;;7.30;99.90;7.10;101603.00;;;;5006602;27;92921;-67
2021/12/14 03:36:38;;;;;;;9.30;5.13;;;7.30;99.90;7.10;101605.00;;;;4995429;27;93863;-67
2021/12/14 03:39:28;;;;;;;13.40;6.60;;;7.30;99.90;7.10;101596.00;;;;5002516;27;93112;-67
2021/12/14 03:42:06;;;;;;;10.37;6.60;;;7.20;99.90;7.10;101608.00;;;;5010622;27;92816;-67
2021/12/14 03:44:41;;;;;;;8.00;6.33;;;7.30;99.90;7.00;101603.00;;;;4995112;27;98529;-67
2021/12/14 03:47:12;;;;;;;9.13;6.37;;;7.20;99.90;7.00;101598.00;;;;4999044;27;93720;-66
2021/12/14 03:49:46;;;;;;;11.10;7.00;;;7.20;99.90;7.00;101601.00;;;;4992427;27;92896;-66
2021/12/14 03:52:18;;;;;;;9.77;5.73;;;7.20;99.90;7.00;101599.00;;;;4992178;27;94152;-67
2021/12/14 03:54:44;;;;;;;9.00;6.50;;;7.20;99.90;7.00;101589.00;;;;5004797;27;92984;-67
2021/12/14 03:57:11;;;;;;;7.77;5.63;;;7.20;99.90;7.10;101594.00;;;;4986022;27;108161;-67
2021/12/14 03:59:37;;;;;;;13.03;6.73;;;7.20;99.90;7.10;101583.00;;;;5005125;27;110171;-66
2021/12/14 04:02:09;;;;;;;10.53;6.40;;;7.20;99.90;7.10;101589.00;;;;4992109;27;93013;-66
2021/12/14 04:05:01;;;;;;;8.03;5.53;;;7.20;99.90;7.00;101593.00;;;;4991758;27;93017;-66
2021/12/14 04:07:27;;;;;;;7.47;5.43;;;7.20;99.90;7.10;101589.00;;;;4994000;27;93197;-66
2021/12/14 04:09:53;;;;;;;10.43;6.57;;;7.20;99.90;7.10;101579.00;;;;4990937;27;124271;-66
2021/12/14 04:12:20;;;;;;;8.33;6.30;;;7.20;99.90;7.10;101577.00;;;;5004782;27;92900;-65
2021/12/14 04:14:54;;;;;;;11.27;6.33;;;7.20;99.90;7.00;101577.00;;;;5012270;27;92866;-66
2021/12/14 04:17:26;;;;;;;15.67;7.77;;;7.20;99.90;7.00;101574.00;;;;5015886;27;94075;-65
2021/12/14 04:19:52;;;;;;;11.30;6.50;;;7.20;99.90;7.00;101572.00;;;;4995509;27;93996;-65
2021/12/14 04:22:24;;;;;;;10.60;5.57;;;7.20;99.90;7.00;101566.00;;;;5016427;27;98303;-66
2021/12/14 04:24:56;;;;;;;11.20;6.13;;;7.10;99.90;7.00;101561.00;;;;5011994;27;92723;-66
2021/12/14 04:27:26;;;;;;;7.27;5.70;;;7.20;99.90;7.00;101559.00;;;;5012121;27;93072;-66
2021/12/14 04:29:54;;;;;;;9.63;6.43;;;7.20;99.90;7.00;101557.00;;;;5011501;27;99451;-66
2021/12/14 04:32:20;;;;;;;9.27;6.17;;;7.20;99.90;7.00;101558.00;;;;5016952;27;93207;-66
2021/12/14 04:34:48;;;;;;;7.30;5.17;;;7.20;99.90;7.00;101559.00;;;;5011945;27;92262;-66
2021/12/14 04:37:17;;;;;;;7.20;5.33;;;7.20;99.90;7.00;101544.00;;;;5011424;27;93419;-66
2021/12/14 04:39:49;;;;;;;8.23;6.00;;;7.10;99.90;7.00;101552.00;;;;5018122;27;95132;-66
2021/12/14 04:53:55;;;;;;;6.60;4.23;;;7.10;99.90;6.90;101550.00;;;;5013483;27;92929;-66
2021/12/14 04:56:40;;;;;;;7.10;5.20;;;7.10;99.90;6.90;101550.00;;;;5014074;27;93354;-65
2021/12/14 04:59:14;;;;;;;9.33;5.37;;;8.40;99.90;7.00;101542.00;;;;5011325;27;93328;-66
2021/12/14 05:01:45;;;;;;;8.07;4.87;;;7.10;99.90;7.00;101541.00;;;;5011588;27;112765;-66
2021/12/14 05:04:17;;;;;;;10.77;4.87;;;7.10;99.90;7.00;101533.00;;;;5011383;27;92961;-66
2021/12/14 05:06:47;;;;;;;9.23;4.80;;;7.10;99.90;6.90;101541.00;;;;5011223;27;92881;-66
2021/12/14 05:09:24;;;;;;;8.03;4.87;;;7.10;99.90;6.90;101533.00;;;;5010079;27;95554;-66
2021/12/14 05:11:57;;;;;;;7.37;5.13;;;7.10;99.90;6.90;101522.00;;;;5017695;27;93074;-66
2021/12/14 05:14:28;;;;;;;6.90;5.10;;;7.10;99.90;6.90;101517.00;;;;5006500;27;92909;-67
2021/12/14 05:17:02;;;;;;;9.37;5.77;;;7.10;99.90;6.90;101517.00;;;;4987990;27;93199;-66
2021/12/14 05:19:33;;;;;;;5.50;3.97;;;7.10;99.90;6.80;101514.00;;;;4976985;27;95846;-67
2021/12/14 05:22:17;;;;;;;7.33;4.53;;;7.00;99.90;6.80;101514.00;;;;4992136;27;93084;-67
2021/12/14 05:24:49;;;;;;;7.30;4.43;;;7.00;99.90;6.80;101515.00;;;;5007124;27;92816;-66
2021/12/14 05:27:27;;;;;;;4.30;3.87;;;6.90;99.90;6.80;101511.00;;;;5009857;27;91946;-67
2021/12/14 05:29:54;;;;;;;5.13;3.80;;;6.90;99.90;6.70;101511.00;;;;5011128;27;93083;-66
2021/12/14 05:32:20;;;;;;;6.80;4.33;;;6.90;99.90;6.80;101502.00;;;;5010178;27;101282;-66
2021/12/14 05:34:49;;;;;;;6.93;4.33;;;6.90;99.90;6.80;101522.00;;;;5008528;27;111391;-66
2021/12/14 05:37:29;;;;;;;8.03;5.33;;;6.90;99.90;6.70;101521.00;;;;4999575;27;93174;-67
2021/12/14 05:40:04;;;;;;;9.27;4.60;;;6.90;99.90;6.80;101505.00;;;;4972833;28;93206;-66
2021/12/14 05:45:23;;;;;;;5.77;4.17;;;6.90;99.90;6.80;101511.00;;;;5007872;27;92579;-67
2021/12/14 05:47:54;;;;;;;5.93;3.83;;;6.90;99.90;6.80;101505.00;;;;5000749;27;93228;-67
2021/12/14 05:50:35;;;;;;;6.77;4.67;;;6.90;99.90;6.70;101503.00;;;;5009277;27;93851;-66
2021/12/14 05:53:03;;;;;;;7.30;3.97;;;6.90;99.90;6.70;101516.00;;;;4984262;28;104381;-66
2021/12/14 05:55:34;;;;;;;6.53;4.50;;;6.90;99.90;6.70;101505.00;;;;5009607;27;92874;-66
2021/12/14 05:58:02;;;;;;;4.67;3.77;;;6.90;99.90;6.70;101499.00;;;;5004168;27;93568;-67
2021/12/14 06:00:30;;;;;;;6.77;4.80;;;6.90;99.90;6.70;101511.00;;;;5008132;27;111224;-66
2021/12/14 06:02:56;;;;;;;8.40;4.53;;;6.90;99.90;6.70;101515.00;;;;5006001;27;94533;-66
2021/12/14 06:05:23;;;;;;;7.17;4.70;;;7.10;99.90;6.70;101511.00;;;;5009137;27;110895;-66
2021/12/14 06:07:50;;;;;;;5.67;3.80;;;6.80;99.90;6.70;101516.00;;;;4973793;27;92973;-66
2021/12/14 06:10:21;;;;;;;5.90;3.90;;;6.90;99.90;6.70;101526.00;;;;5009772;27;93236;-66
2021/12/14 06:12:47;;;;;;;5.27;3.57;;;6.80;99.90;6.70;101533.00;;;;5020310;27;93191;-67
2021/12/14 06:15:21;;;;;;;5.43;3.93;;;7.00;99.90;6.70;101552.00;;;;5010938;27;108764;-66
2021/12/14 06:17:48;;;;;;;6.23;4.27;;;6.80;99.90;6.70;101541.00;;;;5020895;27;92059;-67
2021/12/14 06:20:24;;;;;;;5.87;3.97;;;6.90;99.90;6.70;101546.00;;;;5029960;27;107032;-66
2021/12/14 06:22:53;;;;;;;5.97;4.23;;;6.80;99.90;6.70;101555.00;;;;5020718;27;93087;-67
2021/12/14 06:25:28;;;;;;;8.87;4.13;;;6.90;99.90;6.70;101552.00;;;;5018285;27;93826;-66
2021/12/14 06:27:59;;;;;;;6.17;4.17;;;6.90;99.90;6.70;101549.00;;;;5020355;27;93169;-67
2021/12/14 06:30:33;;;;;;;5.30;3.80;;;6.90;99.90;6.70;101555.00;;;;5030562;27;93147;-66
2021/12/14 06:33:07;;;;;;;4.73;3.27;;;6.90;99.90;6.70;101562.00;;;;5017422;27;92975;-66
2021/12/14 06:35:40;;;;;;;9.37;4.53;;;6.90;99.90;6.80;101562.00;;;;5030483;27;92910;-66
2021/12/14 06:38:30;;;;;;;6.67;4.37;;;6.90;99.90;6.80;101558.00;;;;5022182;27;93245;-66
2021/12/14 06:41:17;;;;;;;10.53;6.00;;;6.90;99.90;6.70;101565.00;;;;5021122;27;93272;-66
2021/12/14 06:43:54;;;;;;;6.07;4.70;;;6.90;99.90;6.80;101560.00;;;;5011347;27;93186;-66
2021/12/14 06:46:35;;;;;;;5.67;3.70;;;6.90;99.90;6.80;101564.00;;;;5006798;27;93004;-66
2021/12/14 06:49:14;;;;;;;6.07;4.00;;;6.90;99.90;6.80;101551.00;;;;5009414;27;98179;-65
2021/12/14 06:51:40;;;;;;;6.63;4.30;;;7.00;99.90;6.80;101548.00;;;;4989580;27;100389;-66
2021/12/14 06:54:16;;;;;;;8.10;5.23;;;6.90;99.90;6.80;101556.00;;;;5022949;27;93785;-66
2021/12/14 06:56:43;;;;;;;7.10;4.33;;;7.00;99.90;6.80;101560.00;;;;5013517;27;93141;-66
2021/12/14 06:59:14;;;;;;;11.67;4.63;;;6.90;99.90;6.80;101559.00;;;;4993272;27;93216;-67
2021/12/14 07:01:49;;;;;;;7.73;5.30;;;6.90;99.90;6.80;101559.00;;;;5009485;27;93019;-66
2021/12/14 07:04:26;;;;;;;6.30;4.87;;;7.00;99.90;6.80;101571.00;;;;5009624;27;96354;-66
2021/12/14 07:07:04;;;;;;;6.97;5.07;;;7.00;99.90;6.80;101568.00;;;;5014843;27;93004;-66
2021/12/14 07:09:44;;;;;;;7.70;4.30;;;7.00;99.90;6.80;101560.00;;;;4991259;27;94741;-66
2021/12/14 07:12:23;;;;;;;8.80;4.67;;;6.90;99.90;6.80;101562.00;;;;4998797;27;92871;-66
2021/12/14 07:14:53;;;;;;;8.30;5.00;;;6.90;99.90;6.80;101557.00;;;;4970191;27;112278;-66
2021/12/14 07:17:27;;;;;;;7.20;4.50;;;7.00;99.90;6.70;101556.00;;;;4990032;27;94201;-66
2021/12/14 07:20:03;;;;;;;12.80;4.30;;;6.90;99.90;6.70;101552.00;;;;4990789;27;92879;-66
2021/12/14 07:22:48;;;;;;;5.83;4.60;;;6.90;99.90;6.70;101567.00;;;;4974465;27;98725;-66
2021/12/14 07:25:26;;;;;;;8.03;4.80;;;6.90;99.90;6.70;101549.00;;;;4992689;27;92996;-66
2021/12/14 07:28:11;;;;;;;8.30;5.37;;;6.90;99.90;6.70;101559.00;;;;4992953;27;92841;-66
2021/12/14 07:30:44;;;;;;;9.20;5.07;;;6.90;99.90;6.70;101549.00;;;;4992334;27;95996;-66
2021/12/14 07:33:17;;;;;;;7.93;5.67;;;6.90;99.90;6.70;101539.00;;;;4994989;27;94413;-66
2021/12/14 07:36:05;;;;;;;8.60;5.13;;;6.90;99.90;6.70;101545.00;;;;4973418;28;95301;-67
2021/12/14 07:38:42;;;;;;;8.10;4.67;;;6.90;99.90;6.70;101550.00;;;;4992780;27;99182;-66
2021/12/14 07:41:23;;;;;;;9.70;5.50;;;6.90;99.90;6.70;101535.00;;;;4993105;27;92843;-66
2021/12/14 07:44:15;;;;;;;9.93;5.13;;;7.80;99.90;6.70;101539.00;;;;4992157;27;93915;-65
2021/12/14 07:47:00;;;;;;;6.50;4.77;;;6.80;99.90;6.70;101538.00;;;;4992556;27;94207;-66
2021/12/14 07:49:40;;;;;;;9.53;5.80;;;6.90;99.90;6.60;101536.00;;;;4974460;28;97159;-66
2021/12/14 07:52:09;;;;;;;13.70;5.63;;;6.80;99.90;6.60;101537.00;;;;4997577;27;92771;-66
2021/12/14 07:54:51;;;;;;;8.57;5.47;;;6.80;99.90;6.60;101537.00;;;;4998283;27;112899;-66
2021/12/14 07:57:27;;;;;;;8.33;4.93;;;6.80;99.90;6.60;101530.00;;;;4992069;27;92981;-66
2021/12/14 08:00:17;;;;;;;6.93;4.67;;;6.80;99.90;6.60;101541.00;;;;4992650;27;92765;-66
2021/12/14 08:02:51;;;;;;;7.70;5.13;;;6.80;99.90;6.60;101532.00;;;;4979663;27;92130;-66
2021/12/14 08:05:22;;;;;;;11.10;6.30;;;6.80;99.90;6.60;101538.00;;;;4992278;27;93865;-67
2021/12/14 08:08:15;;;;;;;9.27;5.60;;;6.80;99.90;6.60;101530.00;;;;4991910;27;92811;-67
2021/12/14 08:10:58;;;;;;;13.53;7.47;;;6.80;99.90;6.60;101539.00;;;;4991871;27;93739;-66
2021/12/14 08:13:25;;;;;;;9.33;6.30;;;6.80;99.90;6.60;101529.00;;;;5017730;27;92964;-66
2021/12/14 08:15:57;;;;;;;10.17;5.87;;;6.80;99.90;6.60;101532.00;;;;5018956;27;93502;-66
2021/12/14 08:18:34;;;;;;;8.07;5.40;;;6.80;99.90;6.60;101539.00;;;;5011435;27;93175;-66
2021/12/14 08:21:08;;;;;;;6.80;4.37;;;6.90;99.90;6.60;101552.00;;;;5013057;27;92778;-66
2021/12/14 08:23:41;;;;;;;5.80;4.50;;;6.80;99.90;6.70;101552.00;;;;5027640;27;92859;-66
2021/12/14 08:26:37;;;;;;;7.33;4.97;;;6.80;99.90;6.70;101559.00;;;;5030871;27;112261;-67
2021/12/14 08:29:08;;;;;;;7.23;4.23;;;6.70;99.90;6.70;101567.00;;;;5002982;27;93231;-66
2021/12/14 08:31:45;;;;;;;6.53;4.37;;;6.80;99.90;6.70;101568.00;;;;4994629;27;95676;-66
2021/12/14 08:34:26;;;;;;;5.50;3.73;;;6.80;99.90;6.70;101564.00;;;;4993656;27;92808;-66
2021/12/14 08:37:09;;;;;;;6.07;4.27;;;6.90;99.90;6.70;101570.00;;;;5015317;27;93912;-66
2021/12/14 08:39:51;;;;;;;4.70;3.90;;;6.80;99.90;6.70;101571.00;;;;4993088;27;93138;-66
2021/12/14 08:42:51;;;;;;;5.80;3.77;;;6.90;99.90;6.70;101567.00;;;;5018238;27;92859;-66
2021/12/14 08:45:27;;;;;;;4.43;3.80;;;6.90;99.90;6.80;101574.00;;;;4996527;27;93168;-66
2021/12/14 08:48:01;;;;;;;7.33;5.07;;;6.90;99.90;6.80;101579.00;;;;5012324;27;92968;-66
2021/12/14 08:50:30;;;;;;;6.83;4.33;;;6.90;99.90;6.80;101572.00;;;;5011368;27;93176;-66
2021/12/14 08:52:56;;;;;;;5.67;3.93;;;7.00;99.90;6.80;101577.00;;;;5018083;27;92735;-66
2021/12/14 08:55:25;;;;;;;8.30;4.77;;;6.90;99.90;6.80;101577.00;;;;5020061;27;96172;-66
2021/12/14 08:57:51;;;;;;;8.50;4.33;;;7.00;99.90;6.90;101568.00;;;;5030926;27;109842;-67
2021/12/14 09:00:28;;;;;;;9.13;4.60;;;6.90;99.90;6.90;101566.00;;;;5019078;27;108558;-66
2021/12/14 09:02:59;;;;;;;4.40;3.77;;;7.00;99.90;6.90;101574.00;;;;5015847;27;93703;-66
2021/12/14 09:05:37;;;;;;;5.37;3.97;;;7.00;99.90;6.90;101576.00;;;;5018468;27;92861;-66
2021/12/14 09:08:04;;;;;;;6.40;4.13;;;7.10;99.90;6.90;101563.00;;;;5011784;27;94206;-66
2021/12/14 09:10:33;;;;;;;7.87;5.17;;;7.10;99.90;7.00;101568.00;;;;5011115;27;93130;-65
2021/12/14 09:13:05;;;;;;;5.97;4.50;;;7.00;99.90;7.00;101573.00;;;;5014217;27;92999;-65
2021/12/14 09:15:52;;;;;;;4.33;3.63;;;7.10;99.90;7.00;101574.00;;;;5015544;27;93179;-65
2021/12/14 09:18:20;;;;;;;6.13;4.57;;;7.10;99.90;7.00;101578.00;;;;5010528;27;107101;-66
2021/12/14 09:20:54;;;;;;;7.50;4.97;;;7.10;99.90;7.00;101578.00;;;;5011458;27;93127;-67
2021/12/14 09:23:28;;;;;;;6.63;4.67;;;7.10;99.90;7.00;101574.00;;;;5017474;27;92948;-66
2021/12/14 09:25:55;;;;;;;6.73;4.63;;;7.20;99.90;7.00;101593.00;;;;5010785;27;98451;-65
2021/12/14 09:28:23;;;;;;;5.93;4.53;;;7.20;99.90;7.10;101585.00;;;;5022291;27;111360;-64
2021/12/14 09:30:56;;;;;;;5.10;3.93;;;7.20;99.90;7.10;101581.00;;;;5025996;27;94096;-65
2021/12/14 09:33:24;;;;;;;7.93;4.73;;;7.20;99.90;7.10;101575.00;;;;5027270;27;92980;-64
2021/12/14 09:35:50;;;;;;;6.93;3.90;;;7.20;99.90;7.10;101573.00;;;;5019235;27;93152;-66
2021/12/14 09:38:19;;;;;;;5.00;4.17;;;7.20;99.90;7.10;101569.00;;;;4995997;27;93618;-65
2021/12/14 09:41:10;;;;;;;8.00;4.47;;;7.30;99.90;7.10;101575.00;;;;5010539;27;94084;-66
2021/12/14 09:43:37;;;;;;;5.63;4.07;;;7.30;99.90;7.10;101576.00;;;;5016494;27;92879;-66
2021/12/14 09:46:06;;;;;;;6.03;4.30;;;7.20;99.90;7.10;101572.00;;;;5012233;27;92277;-66
2021/12/14 09:48:37;;;;;;;7.90;5.13;;;7.30;99.90;7.10;101570.00;;;;5011404;27;93215;-67
2021/12/14 09:51:10;;;;;;;5.13;3.73;;;7.30;99.90;7.10;101575.00;;;;5010742;27;93090;-68
2021/12/14 09:53:41;;;;;;;7.80;4.57;;;7.20;99.90;7.10;101567.00;;;;4988682;27;94112;-67
2021/12/14 09:56:11;;;;;;;6.40;3.87;;;7.30;99.90;7.10;101567.00;;;;5015582;27;95841;-66
2021/12/14 09:58:47;;;;;;;6.63;4.33;;;7.30;99.90;7.10;101560.00;;;;5010611;27;94017;-66
2021/12/14 10:01:29;;;;;;;6.67;4.23;;;7.30;99.90;7.10;101549.00;;;;4991581;27;93080;-67
2021/12/14 10:04:03;;;;;;;5.57;3.43;;;7.30;99.90;7.10;101553.00;;;;5010645;27;93284;-66
2021/12/14 10:06:31;;;;;;;5.93;4.17;;;7.30;99.90;7.20;101548.00;;;;4995430;27;92880;-69
2021/12/14 10:09:05;;;;;;;6.07;3.90;;;7.30;99.90;7.10;101545.00;;;;5011887;27;93367;-67
2021/12/14 10:14:30;;;;;;;4.10;3.03;;;7.30;99.90;7.10;101531.00;;;;5027626;27;92802;-66
2021/12/14 10:16:56;;;;;;;5.67;3.37;;;7.20;99.90;7.10;101538.00;;;;5025702;27;94182;-66
2021/12/14 10:19:28;;;;;;;4.90;3.43;;;7.20;99.90;7.10;101524.00;;;;5009665;27;102379;-66
2021/12/14 10:22:00;;;;;;;6.23;4.07;;;7.20;99.90;7.10;101522.00;;;;5009476;27;110616;-65
2021/12/14 10:24:26;;;;;;;4.90;3.63;;;7.30;99.90;7.10;101528.00;;;;5009444;27;93151;-67
2021/12/14 10:27:02;;;;;;;7.93;3.53;;;7.30;99.90;7.10;101522.00;;;;5011717;27;96791;-66
2021/12/14 10:29:29;;;;;;;5.63;3.87;;;7.20;99.90;7.10;101514.00;;;;5010108;27;93911;-68
2021/12/14 10:32:04;;;;;;;5.03;3.50;;;7.30;99.90;7.10;101508.00;;;;5010960;27;93429;-68
2021/12/14 10:34:40;;;;;;;5.30;3.90;;;7.20;99.90;7.10;101513.00;;;;5010496;27;95522;-67
2021/12/14 10:37:19;;;;;;;5.17;3.37;;;7.50;99.90;7.10;101508.00;;;;4989903;27;92373;-68
2021/12/14 10:45:05;;;;;;;6.17;4.03;;;7.30;99.90;7.20;101516.00;;;;5006528;27;93980;-66
2021/12/14 10:47:33;;;;;;;7.10;4.43;;;7.30;99.90;7.20;101517.00;;;;5016126;27;94394;-67
2021/12/14 10:50:06;;;;;;;5.57;4.30;;;7.80;99.90;7.20;101512.00;;;;5009281;27;108896;-66
2021/12/14 10:52:32;;;;;;;6.07;3.87;;;7.40;99.90;7.30;101530.00;;;;5009916;27;93238;-67
2021/12/14 10:55:08;;;;;;;5.80;4.43;;;7.40;99.90;7.30;101519.00;;;;5014037;27;92752;-66
2021/12/14 10:57:36;;;;;;;5.13;3.67;;;7.40;99.90;7.30;101505.00;;;;5018225;27;92921;-67
2021/12/14 11:00:16;;;;;;;5.83;3.80;;;7.40;99.90;7.40;101506.00;;;;5013787;27;93110;-67
2021/12/14 11:02:43;;;;;;;6.33;4.53;;;7.50;99.90;7.40;101501.00;;;;5013954;27;93376;-67
2021/12/14 11:05:18;;;;;;;5.77;4.40;;;8.10;99.90;7.40;101512.00;;;;5013714;27;93009;-67
2021/12/14 11:07:47;;;;;;;6.13;3.57;;;7.50;99.90;7.40;101504.00;;;;5013898;27;93059;-67
2021/12/14 11:10:24;;;;;;;5.23;3.50;;;7.50;99.90;7.40;101513.00;;;;5012753;27;94073;-67
2021/12/14 11:12:59;;;;;;;7.33;4.40;;;7.60;99.90;7.40;101516.00;;;;5016118;27;94028;-67
2021/12/14 11:15:35;;;;;;;6.40;4.37;;;7.50;99.90;7.40;101512.00;;;;5012828;27;92942;-67
2021/12/14 11:18:12;;;;;;;8.10;3.57;;;7.60;99.90;7.50;101512.00;;;;5014476;27;93220;-67
2021/12/14 11:20:57;;;;;;;4.97;3.77;;;7.60;99.90;7.50;101510.00;;;;5018698;27;93792;-67
2021/12/14 11:23:49;;;;;;;6.10;4.10;;;7.60;99.90;7.50;101516.00;;;;5015956;27;92941;-67
2021/12/14 11:26:35;;;;;;;5.47;4.07;;;7.60;99.90;7.50;101519.00;;;;4996495;27;92995;-67
2021/12/14 11:29:13;;;;;;;6.53;4.03;;;7.60;99.90;7.50;101515.00;;;;5016358;27;92179;-67
2021/12/14 11:31:51;;;;;;;7.33;3.97;;;7.70;99.90;7.50;101508.00;;;;5019934;27;93408;-67
2021/12/14 11:34:39;;;;;;;4.53;3.80;;;7.70;99.90;7.60;101524.00;;;;5031668;27;92976;-68
2021/12/14 11:37:14;;;;;;;6.77;4.67;;;7.70;99.90;7.60;101523.00;;;;5024381;27;93906;-67
2021/12/14 11:39:45;;;;;;;4.27;3.83;;;7.70;99.90;7.60;101509.00;;;;5012705;27;92828;-67
2021/12/14 11:42:20;;;;;;;7.07;4.10;;;7.70;99.90;7.60;101515.00;;;;5011639;27;97661;-68
2021/12/14 11:44:53;;;;;;;7.20;4.20;;;7.80;99.90;7.60;101509.00;;;;5011410;27;93979;-67
2021/12/14 11:50:18;;;;;;;4.70;4.10;;;7.70;99.90;7.60;101498.00;;;;5001952;27;93130;-67
2021/12/14 11:53:05;;;;;;;8.63;4.50;;;7.70;99.90;7.60;101505.00;;;;5012762;27;93426;-67
2021/12/14 11:55:47;;;;;;;7.33;4.07;;;7.70;99.90;7.60;101499.00;;;;5018211;27;92809;-68
2021/12/14 11:58:33;;;;;;;4.23;3.50;;;7.70;99.90;7.60;101494.00;;;;5004074;27;93306;-69
2021/12/14 12:01:35;;;;;;;6.13;3.33;;;7.80;99.90;7.60;101480.00;;;;4994602;27;93020;-68
2021/12/14 12:04:07;;;;;;;7.60;4.03;;;7.80;99.90;7.50;101479.00;;;;4996400;27;94102;-68